createdAt,value
2023-11-15T00:00:08.868Z,0.00
2023-11-15T00:01:08.817Z,0.00
2023-11-15T00:02:08.844Z,0.00
2023-11-15T00:03:08.939Z,0.00
2023-11-15T00:04:08.808Z,0.00
2023-11-15T00:05:08.798Z,0.00
2023-11-15T00:06:09.015Z,0.00
2023-11-15T00:07:08.832Z,0.00
2023-11-15T00:08:08.759Z,0.00
2023-11-15T00:09:08.755Z,0.00
2023-11-15T00:10:08.728Z,0.00
2023-11-15T00:11:08.724Z,0.00
2023-11-15T00:12:08.690Z,0.00
2023-11-15T00:13:08.698Z,0.00
2023-11-15T00:14:08.672Z,0.00
2023-11-15T00:15:08.653Z,0.00
2023-11-15T00:16:08.686Z,0.00
2023-11-15T00:17:08.623Z,0.00
2023-11-15T00:18:08.716Z,0.00
2023-11-15T00:19:08.619Z,0.00
2023-11-15T00:20:08.600Z,0.00
2023-11-15T00:21:08.595Z,0.00
2023-11-15T00:22:08.600Z,0.00
2023-11-15T00:23:08.591Z,0.00
2023-11-15T00:24:08.561Z,0.00
2023-11-15T00:25:08.554Z,0.00
2023-11-15T00:26:08.541Z,0.00
2023-11-15T00:27:08.570Z,0.00
2023-11-15T00:28:08.522Z,0.00
2023-11-15T00:29:08.510Z,0.00
2023-11-15T00:30:08.499Z,0.00
2023-11-15T00:31:08.491Z,0.00
2023-11-15T00:32:08.481Z,0.00
2023-11-15T00:33:08.546Z,0.00
2023-11-15T00:34:08.443Z,0.00
2023-11-15T00:35:08.441Z,0.00
2023-11-15T00:36:08.478Z,0.00
2023-11-15T00:37:08.436Z,0.00
2023-11-15T00:38:08.392Z,0.00
2023-11-15T00:39:08.430Z,0.00
2023-11-15T00:40:08.351Z,0.00
2023-11-15T00:41:08.377Z,0.00
2023-11-15T00:42:08.324Z,0.00
2023-11-15T00:43:08.304Z,0.00
2023-11-15T00:44:08.324Z,0.00
2023-11-15T00:45:08.293Z,0.00
2023-11-15T00:46:08.337Z,0.00
2023-11-15T00:47:08.314Z,0.00
2023-11-15T00:48:08.378Z,0.00
2023-11-15T00:49:08.245Z,0.00
2023-11-15T00:50:08.237Z,0.00
2023-11-15T00:51:08.225Z,0.00
2023-11-15T00:52:08.221Z,0.00
2023-11-15T00:53:08.224Z,0.00
2023-11-15T00:54:08.197Z,0.00
2023-11-15T00:55:08.173Z,0.00
2023-11-15T00:56:08.170Z,0.00
2023-11-15T00:57:08.153Z,0.00
2023-11-15T00:58:08.139Z,0.00
2023-11-15T00:59:08.167Z,0.00
2023-11-15T01:00:08.133Z,0.00
2023-11-15T01:01:08.113Z,0.00
2023-11-15T01:02:08.122Z,0.00
2023-11-15T01:03:08.251Z,0.00
2023-11-15T01:04:08.193Z,0.00
2023-11-15T01:05:08.068Z,0.00
2023-11-15T01:06:08.077Z,0.00
2023-11-15T01:07:08.045Z,0.00
2023-11-15T01:08:08.050Z,0.00
2023-11-15T01:09:08.038Z,0.00
2023-11-15T01:10:08.013Z,0.00
2023-11-15T01:11:08.005Z,0.00
2023-11-15T01:12:07.993Z,0.00
2023-11-15T01:13:07.968Z,0.00
2023-11-15T01:14:07.998Z,0.00
2023-11-15T01:15:07.950Z,0.00
2023-11-15T01:16:07.960Z,0.00
2023-11-15T01:17:07.950Z,0.00
2023-11-15T01:18:07.992Z,0.00
2023-11-15T01:19:07.911Z,0.00
2023-11-15T01:20:07.926Z,0.00
2023-11-15T01:21:07.874Z,0.00
2023-11-15T01:22:07.930Z,0.00
2023-11-15T01:23:07.876Z,0.00
2023-11-15T01:24:07.868Z,0.00
2023-11-15T01:25:07.834Z,0.00
2023-11-15T01:26:07.831Z,0.00
2023-11-15T01:27:07.809Z,0.00
2023-11-15T01:28:07.833Z,0.00
2023-11-15T01:29:07.790Z,0.00
2023-11-15T01:30:07.785Z,0.00
2023-11-15T01:31:07.769Z,0.00
2023-11-15T01:32:07.770Z,0.00
2023-11-15T01:33:07.848Z,0.00
2023-11-15T01:34:07.779Z,0.00
2023-11-15T01:35:07.724Z,0.00
2023-11-15T01:36:07.716Z,0.00
2023-11-15T01:37:07.700Z,0.00
2023-11-15T01:38:07.694Z,0.00
2023-11-15T01:39:07.723Z,0.00
2023-11-15T01:40:07.917Z,0.00
2023-11-15T01:41:07.681Z,0.00
2023-11-15T01:42:07.655Z,0.00
2023-11-15T01:43:07.639Z,0.00
2023-11-15T01:44:07.623Z,0.00
2023-11-15T01:45:07.660Z,0.00
2023-11-15T01:46:07.700Z,0.00
2023-11-15T01:47:07.601Z,0.00
2023-11-15T01:48:07.681Z,0.00
2023-11-15T01:49:07.560Z,0.00
2023-11-15T01:50:07.559Z,0.00
2023-11-15T01:51:07.574Z,0.00
2023-11-15T01:52:07.533Z,0.00
2023-11-15T01:53:07.518Z,0.00
2023-11-15T01:54:07.531Z,0.00
2023-11-15T01:55:07.494Z,0.00
2023-11-15T01:56:07.488Z,0.00
2023-11-15T01:57:07.518Z,0.00
2023-11-15T01:58:07.464Z,0.00
2023-11-15T01:59:07.446Z,0.00
2023-11-15T02:00:07.441Z,0.00
2023-11-15T02:01:07.440Z,0.00
2023-11-15T02:02:07.418Z,0.00
2023-11-15T02:03:07.640Z,0.00
2023-11-15T02:04:07.430Z,0.00
2023-11-15T02:05:07.387Z,0.00
2023-11-15T02:06:07.376Z,0.00
2023-11-15T02:07:07.357Z,0.00
2023-11-15T02:08:07.350Z,0.00
2023-11-15T02:09:07.372Z,0.00
2023-11-15T02:10:07.338Z,0.00
2023-11-15T02:11:07.312Z,0.00
2023-11-15T02:12:07.303Z,0.00
2023-11-15T02:13:07.290Z,0.00
2023-11-15T02:14:07.281Z,0.00
2023-11-15T02:15:07.303Z,0.00
2023-11-15T02:16:07.288Z,0.00
2023-11-15T02:17:07.283Z,0.00
2023-11-15T02:18:07.335Z,0.00
2023-11-15T02:19:07.217Z,0.00
2023-11-15T02:20:07.230Z,0.00
2023-11-15T02:21:07.223Z,0.00
2023-11-15T02:22:07.189Z,0.00
2023-11-15T02:23:07.173Z,0.00
2023-11-15T02:24:07.169Z,0.00
2023-11-15T02:25:07.167Z,0.00
2023-11-15T02:26:07.152Z,0.00
2023-11-15T02:27:07.170Z,0.00
2023-11-15T02:28:07.121Z,0.00
2023-11-15T02:29:07.114Z,0.00
2023-11-15T02:30:07.101Z,0.00
2023-11-15T02:31:07.133Z,0.00
2023-11-15T02:32:07.093Z,0.00
2023-11-15T02:33:07.160Z,0.00
2023-11-15T02:34:07.070Z,0.00
2023-11-15T02:35:07.049Z,0.00
2023-11-15T02:36:07.048Z,0.00
2023-11-15T02:37:07.021Z,0.00
2023-11-15T02:38:07.019Z,0.00
2023-11-15T02:39:07.024Z,0.00
2023-11-15T02:40:06.994Z,0.00
2023-11-15T02:41:06.971Z,0.00
2023-11-15T02:42:06.959Z,0.00
2023-11-15T02:43:06.958Z,0.00
2023-11-15T02:44:06.975Z,0.00
2023-11-15T02:45:07.001Z,0.00
2023-11-15T02:46:06.925Z,0.00
2023-11-15T02:47:06.918Z,0.00
2023-11-15T02:48:06.931Z,0.00
2023-11-15T02:49:06.942Z,0.00
2023-11-15T02:50:06.900Z,0.00
2023-11-15T02:51:06.864Z,0.00
2023-11-15T02:52:06.852Z,0.00
2023-11-15T02:53:06.852Z,0.00
2023-11-15T02:54:06.832Z,0.00
2023-11-15T02:55:06.839Z,0.00
2023-11-15T02:56:06.834Z,0.00
2023-11-15T02:57:06.799Z,0.00
2023-11-15T02:58:06.794Z,0.00
2023-11-15T02:59:06.774Z,0.00
2023-11-15T03:00:06.756Z,0.00
2023-11-15T03:01:06.772Z,0.00
2023-11-15T03:02:06.740Z,0.00
2023-11-15T03:03:06.850Z,0.00
2023-11-15T03:04:06.779Z,0.00
2023-11-15T03:05:06.707Z,0.00
2023-11-15T03:06:06.720Z,0.00
2023-11-15T03:07:06.718Z,0.00
2023-11-15T03:08:06.701Z,0.00
2023-11-15T03:09:06.658Z,0.00
2023-11-15T03:10:06.648Z,0.00
2023-11-15T03:11:06.643Z,0.00
2023-11-15T03:12:06.628Z,0.00
2023-11-15T03:13:06.673Z,0.00
2023-11-15T03:14:06.599Z,0.00
2023-11-15T03:15:06.679Z,0.00
2023-11-15T03:16:06.583Z,0.00
2023-11-15T03:17:06.583Z,0.00
2023-11-15T03:18:06.639Z,0.00
2023-11-15T03:19:06.580Z,0.00
2023-11-15T03:20:06.532Z,0.00
2023-11-15T03:21:06.533Z,0.00
2023-11-15T03:22:06.509Z,0.00
2023-11-15T03:23:06.508Z,0.00
2023-11-15T03:24:06.479Z,0.00
2023-11-15T03:25:06.511Z,0.00
2023-11-15T03:26:06.476Z,0.00
2023-11-15T03:27:06.457Z,0.00
2023-11-15T03:28:06.459Z,0.00
2023-11-15T03:29:06.437Z,0.00
2023-11-15T03:30:06.417Z,0.00
2023-11-15T03:31:06.445Z,0.00
2023-11-15T03:32:06.413Z,0.00
2023-11-15T03:33:06.460Z,0.00
2023-11-15T03:34:06.463Z,0.00
2023-11-15T03:35:06.385Z,0.00
2023-11-15T03:36:06.378Z,0.00
2023-11-15T03:37:06.402Z,0.00
2023-11-15T03:38:06.325Z,0.00
2023-11-15T03:39:06.331Z,0.00
2023-11-15T03:40:06.321Z,0.00
2023-11-15T03:41:06.298Z,0.00
2023-11-15T03:42:06.284Z,0.00
2023-11-15T03:43:06.310Z,0.00
2023-11-15T03:44:06.256Z,0.00
2023-11-15T03:45:06.340Z,0.00
2023-11-15T03:46:06.248Z,0.00
2023-11-15T03:47:06.219Z,0.00
2023-11-15T03:48:06.242Z,0.00
2023-11-15T03:49:06.233Z,0.00
2023-11-15T03:50:06.194Z,0.00
2023-11-15T03:51:06.180Z,0.00
2023-11-15T03:52:06.164Z,0.00
2023-11-15T03:53:06.154Z,0.00
2023-11-15T03:54:06.146Z,0.00
2023-11-15T03:55:06.189Z,0.00
2023-11-15T03:56:06.131Z,0.00
2023-11-15T03:57:06.140Z,0.00
2023-11-15T03:58:06.106Z,0.00
2023-11-15T03:59:06.104Z,0.00
2023-11-15T04:00:06.084Z,0.00
2023-11-15T04:01:06.086Z,0.00
2023-11-15T04:02:06.144Z,0.00
2023-11-15T04:03:06.350Z,0.00
2023-11-15T04:04:06.256Z,0.00
2023-11-15T04:05:06.088Z,0.00
2023-11-15T04:06:06.028Z,0.00
2023-11-15T04:07:06.021Z,0.00
2023-11-15T04:08:05.975Z,0.00
2023-11-15T04:09:05.970Z,0.00
2023-11-15T04:10:05.961Z,0.00
2023-11-15T04:11:05.949Z,0.00
2023-11-15T04:12:05.967Z,0.00
2023-11-15T04:13:05.920Z,0.00
2023-11-15T04:14:05.957Z,0.00
2023-11-15T04:15:05.910Z,0.00
2023-11-15T04:16:05.979Z,0.00
2023-11-15T04:17:05.880Z,0.00
2023-11-15T04:18:06.010Z,0.00
2023-11-15T04:19:05.857Z,0.00
2023-11-15T04:20:05.861Z,0.00
2023-11-15T04:21:05.833Z,0.00
2023-11-15T04:22:12.290Z,0.00
2023-11-15T04:23:05.813Z,0.00
2023-11-15T04:24:05.856Z,0.00
2023-11-15T04:25:05.821Z,0.00
2023-11-15T04:26:05.850Z,0.00
2023-11-15T04:27:05.763Z,0.00
2023-11-15T04:28:05.791Z,0.00
2023-11-15T04:29:05.745Z,0.00
2023-11-15T04:30:05.761Z,0.00
2023-11-15T04:31:05.729Z,0.00
2023-11-15T04:32:05.708Z,0.00
2023-11-15T04:33:05.832Z,0.00
2023-11-15T04:34:05.692Z,0.00
2023-11-15T04:35:05.685Z,0.00
2023-11-15T04:36:05.708Z,0.00
2023-11-15T04:37:05.651Z,0.00
2023-11-15T04:38:05.650Z,0.00
2023-11-15T04:39:05.676Z,0.00
2023-11-15T04:40:05.622Z,0.00
2023-11-15T04:41:05.647Z,0.00
2023-11-15T04:42:05.706Z,0.00
2023-11-15T04:43:05.592Z,0.00
2023-11-15T04:44:05.626Z,0.00
2023-11-15T04:45:05.771Z,0.00
2023-11-15T04:46:05.597Z,0.00
2023-11-15T04:47:05.574Z,0.00
2023-11-15T04:48:05.592Z,0.00
2023-11-15T04:49:05.529Z,0.00
2023-11-15T04:50:05.568Z,0.00
2023-11-15T04:51:05.550Z,0.00
2023-11-15T04:52:05.492Z,0.00
2023-11-15T04:53:05.490Z,0.00
2023-11-15T04:54:05.509Z,0.00
2023-11-15T04:55:05.463Z,0.00
2023-11-15T04:56:05.452Z,0.00
2023-11-15T04:57:05.489Z,0.00
2023-11-15T04:58:05.456Z,0.00
2023-11-15T04:59:05.418Z,0.00
2023-11-15T05:00:05.472Z,0.00
2023-11-15T05:01:05.399Z,0.00
2023-11-15T05:02:05.371Z,0.00
2023-11-15T05:03:05.562Z,0.00
2023-11-15T05:04:05.545Z,0.00
2023-11-15T05:05:05.360Z,0.00
2023-11-15T05:06:05.353Z,0.00
2023-11-15T05:07:05.315Z,0.00
2023-11-15T05:08:05.310Z,0.00
2023-11-15T05:09:05.301Z,0.00
2023-11-15T05:10:05.316Z,0.00
2023-11-15T05:11:05.286Z,0.00
2023-11-15T05:12:05.277Z,0.00
2023-11-15T05:13:05.258Z,0.00
2023-11-15T05:14:05.240Z,0.00
2023-11-15T05:15:05.253Z,0.00
2023-11-15T05:16:05.275Z,0.00
2023-11-15T05:17:05.199Z,0.00
2023-11-15T05:18:05.267Z,0.00
2023-11-15T05:19:05.182Z,0.00
2023-11-15T05:20:05.170Z,0.00
2023-11-15T05:21:05.184Z,0.00
2023-11-15T05:22:05.145Z,0.00
2023-11-15T05:23:05.133Z,0.00
2023-11-15T05:24:05.160Z,0.00
2023-11-15T05:25:05.113Z,0.00
2023-11-15T05:26:05.167Z,0.00
2023-11-15T05:27:05.130Z,0.00
2023-11-15T05:28:05.081Z,0.00
2023-11-15T05:29:05.096Z,0.00
2023-11-15T05:30:05.065Z,0.00
2023-11-15T05:31:05.109Z,0.00
2023-11-15T05:32:05.054Z,0.00
2023-11-15T05:33:05.114Z,0.00
2023-11-15T05:34:05.075Z,0.00
2023-11-15T05:35:04.994Z,0.00
2023-11-15T05:36:05.009Z,0.00
2023-11-15T05:37:05.029Z,0.00
2023-11-15T05:38:05.053Z,0.00
2023-11-15T05:39:05.007Z,0.00
2023-11-15T05:40:04.965Z,0.00
2023-11-15T05:41:04.966Z,0.00
2023-11-15T05:42:05.099Z,0.00
2023-11-15T05:43:04.959Z,0.00
2023-11-15T05:44:04.928Z,0.00
2023-11-15T05:45:04.906Z,0.00
2023-11-15T05:46:04.920Z,0.00
2023-11-15T05:47:04.898Z,0.00
2023-11-15T05:48:04.943Z,0.00
2023-11-15T05:49:04.839Z,0.00
2023-11-15T05:50:04.825Z,0.00
2023-11-15T05:51:04.828Z,0.00
2023-11-15T05:52:04.812Z,0.00
2023-11-15T05:53:04.829Z,0.00
2023-11-15T05:54:04.835Z,0.00
2023-11-15T05:55:04.791Z,0.00
2023-11-15T05:56:04.785Z,0.00
2023-11-15T05:57:04.823Z,0.00
2023-11-15T05:58:04.805Z,0.00
2023-11-15T05:59:04.756Z,0.00
2023-11-15T06:00:04.760Z,0.00
2023-11-15T06:01:04.718Z,0.00
2023-11-15T06:02:04.776Z,0.00
2023-11-15T06:03:04.741Z,0.00
2023-11-15T06:04:04.733Z,0.00
2023-11-15T06:05:04.706Z,0.00
2023-11-15T06:06:04.744Z,0.00
2023-11-15T06:07:04.642Z,0.00
2023-11-15T06:08:05.371Z,0.00
2023-11-15T06:09:04.647Z,0.00
2023-11-15T06:10:04.669Z,0.00
2023-11-15T06:11:04.587Z,0.00
2023-11-15T06:12:04.616Z,0.00
2023-11-15T06:13:04.597Z,0.00
2023-11-15T06:14:04.566Z,0.00
2023-11-15T06:15:04.632Z,0.00
2023-11-15T06:16:04.632Z,0.00
2023-11-15T06:17:04.565Z,0.00
2023-11-15T06:18:04.640Z,0.00
2023-11-15T06:19:04.495Z,0.00
2023-11-15T06:20:07.038Z,0.00
2023-11-15T06:21:04.540Z,0.00
2023-11-15T06:22:04.523Z,0.00
2023-11-15T06:23:04.448Z,0.00
2023-11-15T06:24:04.498Z,0.00
2023-11-15T06:25:04.464Z,0.00
2023-11-15T06:26:04.448Z,0.00
2023-11-15T06:27:04.485Z,0.00
2023-11-15T06:28:04.483Z,0.00
2023-11-15T06:29:04.381Z,0.00
2023-11-15T06:30:04.476Z,0.00
2023-11-15T06:31:04.427Z,0.00
2023-11-15T06:32:04.357Z,0.00
2023-11-15T06:33:04.423Z,0.00
2023-11-15T06:34:04.461Z,0.00
2023-11-15T06:35:04.336Z,0.00
2023-11-15T06:36:04.405Z,0.00
2023-11-15T06:37:04.319Z,4.00
2023-11-15T06:38:04.293Z,4.00
2023-11-15T06:39:04.321Z,8.00
2023-11-15T06:40:04.269Z,12.00
2023-11-15T06:41:04.276Z,16.00
2023-11-15T06:42:04.392Z,16.00
2023-11-15T06:43:04.250Z,16.00
2023-11-15T06:44:04.237Z,16.00
2023-11-15T06:45:04.342Z,16.00
2023-11-15T06:46:04.230Z,16.00
2023-11-15T06:47:04.288Z,12.00
2023-11-15T06:48:04.341Z,16.00
2023-11-15T06:49:04.189Z,16.00
2023-11-15T06:50:04.197Z,24.00
2023-11-15T06:51:04.164Z,28.00
2023-11-15T06:52:04.174Z,28.00
2023-11-15T06:53:04.138Z,28.00
2023-11-15T06:54:04.245Z,28.00
2023-11-15T06:55:04.094Z,28.00
2023-11-15T06:56:04.148Z,24.00
2023-11-15T06:57:04.120Z,24.00
2023-11-15T06:58:04.112Z,28.00
2023-11-15T06:59:04.041Z,40.00
2023-11-15T07:00:04.075Z,40.00
2023-11-15T07:01:04.055Z,40.00
2023-11-15T07:02:04.035Z,36.00
2023-11-15T07:03:04.082Z,44.00
2023-11-15T07:04:04.178Z,44.00
2023-11-15T07:05:04.004Z,40.00
2023-11-15T07:06:04.018Z,44.00
2023-11-15T07:07:03.958Z,48.00
2023-11-15T07:08:04.091Z,60.00
2023-11-15T07:09:03.976Z,64.00
2023-11-15T07:10:03.955Z,64.00
2023-11-15T07:11:03.920Z,72.00
2023-11-15T07:12:04.024Z,72.00
2023-11-15T07:13:03.903Z,72.00
2023-11-15T07:14:03.896Z,68.00
2023-11-15T07:15:03.990Z,60.00
2023-11-15T07:16:03.887Z,60.00
2023-11-15T07:17:03.864Z,56.00
2023-11-15T07:18:03.960Z,44.00
2023-11-15T07:19:03.844Z,44.00
2023-11-15T07:20:03.872Z,40.00
2023-11-15T07:21:03.808Z,36.00
2023-11-15T07:22:03.803Z,48.00
2023-11-15T07:23:03.759Z,60.00
2023-11-15T07:24:03.897Z,76.00
2023-11-15T07:25:03.761Z,88.00
2023-11-15T07:26:03.775Z,92.00
2023-11-15T07:27:03.805Z,88.00
2023-11-15T07:28:03.720Z,76.00
2023-11-15T07:29:03.709Z,64.00
2023-11-15T07:30:03.765Z,52.00
2023-11-15T07:31:03.773Z,52.00
2023-11-15T07:32:03.723Z,52.00
2023-11-15T07:33:03.732Z,60.00
2023-11-15T07:34:03.647Z,72.00
2023-11-15T07:35:03.651Z,92.00
2023-11-15T07:36:03.655Z,100.00
2023-11-15T07:37:03.652Z,104.00
2023-11-15T07:38:03.664Z,104.00
2023-11-15T07:39:03.634Z,100.00
2023-11-15T07:40:03.588Z,108.00
2023-11-15T07:41:03.560Z,120.00
2023-11-15T07:42:03.652Z,132.00
2023-11-15T07:43:03.576Z,136.00
2023-11-15T07:44:03.533Z,132.00
2023-11-15T07:45:03.631Z,124.00
2023-11-15T07:46:03.534Z,120.00
2023-11-15T07:47:03.499Z,124.00
2023-11-15T07:48:03.550Z,128.00
2023-11-15T07:49:03.512Z,140.00
2023-11-15T07:50:03.474Z,140.00
2023-11-15T07:51:03.451Z,140.00
2023-11-15T07:52:03.454Z,136.00
2023-11-15T07:53:03.425Z,140.00
2023-11-15T07:54:03.491Z,148.00
2023-11-15T07:55:03.485Z,164.00
2023-11-15T07:56:03.411Z,196.00
2023-11-15T07:57:03.406Z,240.00
2023-11-15T07:58:03.413Z,276.00
2023-11-15T07:59:03.369Z,312.00
2023-11-15T08:00:03.424Z,312.00
2023-11-15T08:01:03.394Z,300.00
2023-11-15T08:02:03.333Z,260.00
2023-11-15T08:03:03.427Z,220.00
2023-11-15T08:04:03.434Z,188.00
2023-11-15T08:05:03.377Z,164.00
2023-11-15T08:06:03.338Z,152.00
2023-11-15T08:07:03.299Z,140.00
2023-11-15T08:08:04.950Z,148.00
2023-11-15T08:09:03.271Z,164.00
2023-11-15T08:10:03.256Z,188.00
2023-11-15T08:11:03.244Z,228.00
2023-11-15T08:12:03.259Z,276.00
2023-11-15T08:13:03.210Z,308.00
2023-11-15T08:14:03.205Z,328.00
2023-11-15T08:15:03.311Z,344.00
2023-11-15T08:16:03.165Z,360.00
2023-11-15T08:17:03.179Z,380.00
2023-11-15T08:18:03.314Z,396.00
2023-11-15T08:19:03.208Z,408.00
2023-11-15T08:20:03.135Z,408.00
2023-11-15T08:21:03.138Z,400.00
2023-11-15T08:22:03.096Z,408.00
2023-11-15T08:23:03.134Z,464.00
2023-11-15T08:24:03.156Z,520.00
2023-11-15T08:25:03.065Z,568.00
2023-11-15T08:26:03.064Z,636.00
2023-11-15T08:27:03.115Z,720.00
2023-11-15T08:28:03.275Z,788.00
2023-11-15T08:29:03.047Z,832.00
2023-11-15T08:30:03.088Z,900.00
2023-11-15T08:31:03.007Z,996.00
2023-11-15T08:32:02.978Z,1172.00
2023-11-15T08:33:03.028Z,1312.00
2023-11-15T08:34:03.054Z,1368.00
2023-11-15T08:35:02.971Z,1420.00
2023-11-15T08:36:03.002Z,1412.00
2023-11-15T08:37:02.931Z,1376.00
2023-11-15T08:38:02.939Z,1248.00
2023-11-15T08:39:02.914Z,1052.00
2023-11-15T08:40:05.229Z,840.00
2023-11-15T08:41:02.927Z,728.00
2023-11-15T08:42:02.931Z,836.00
2023-11-15T08:43:02.863Z,864.00
2023-11-15T08:44:02.841Z,824.00
2023-11-15T08:45:02.913Z,840.00
2023-11-15T08:46:02.842Z,988.00
2023-11-15T08:47:02.833Z,1056.00
2023-11-15T08:48:02.890Z,1000.00
2023-11-15T08:49:02.937Z,880.00
2023-11-15T08:50:02.825Z,772.00
2023-11-15T08:51:02.799Z,740.00
2023-11-15T08:52:02.755Z,716.00
2023-11-15T08:53:02.759Z,660.00
2023-11-15T08:54:02.789Z,580.00
2023-11-15T08:55:02.725Z,500.00
2023-11-15T08:56:02.761Z,384.00
2023-11-15T08:57:02.737Z,284.00
2023-11-15T08:58:02.684Z,216.00
2023-11-15T08:59:02.677Z,168.00
2023-11-15T09:00:02.722Z,148.00
2023-11-15T09:01:03.165Z,132.00
2023-11-15T09:02:02.637Z,112.00
2023-11-15T09:03:02.700Z,88.00
2023-11-15T09:04:02.823Z,84.00
2023-11-15T09:05:02.617Z,100.00
2023-11-15T09:06:02.616Z,120.00
2023-11-15T09:07:02.621Z,124.00
2023-11-15T09:08:02.581Z,128.00
2023-11-15T09:09:02.605Z,132.00
2023-11-15T09:10:02.546Z,136.00
2023-11-15T09:11:02.543Z,132.00
2023-11-15T09:12:02.569Z,140.00
2023-11-15T09:13:02.519Z,148.00
2023-11-15T09:14:02.517Z,160.00
2023-11-15T09:15:02.516Z,192.00
2023-11-15T09:16:02.486Z,232.00
2023-11-15T09:17:02.547Z,256.00
2023-11-15T09:18:02.529Z,276.00
2023-11-15T09:19:02.458Z,308.00
2023-11-15T09:20:02.477Z,328.00
2023-11-15T09:21:02.523Z,328.00
2023-11-15T09:22:02.480Z,328.00
2023-11-15T09:23:02.535Z,328.00
2023-11-15T09:24:02.531Z,368.00
2023-11-15T09:25:07.327Z,408.00
2023-11-15T09:26:02.463Z,440.00
2023-11-15T09:27:02.512Z,480.00
2023-11-15T09:28:02.383Z,528.00
2023-11-15T09:29:02.409Z,600.00
2023-11-15T09:30:02.403Z,652.00
2023-11-15T09:31:02.352Z,688.00
2023-11-15T09:32:02.349Z,724.00
2023-11-15T09:33:02.413Z,804.00
2023-11-15T09:34:02.514Z,840.00
2023-11-15T09:35:02.324Z,928.00
2023-11-15T09:36:02.330Z,1020.00
2023-11-15T09:37:02.283Z,940.00
2023-11-15T09:38:02.322Z,912.00
2023-11-15T09:39:02.302Z,1032.00
2023-11-15T09:40:02.576Z,932.00
2023-11-15T09:41:02.256Z,800.00
2023-11-15T09:42:02.275Z,712.00
2023-11-15T09:43:02.259Z,644.00
2023-11-15T09:44:02.245Z,560.00
2023-11-15T09:45:02.268Z,512.00
2023-11-15T09:46:02.277Z,488.00
2023-11-15T09:47:02.170Z,532.00
2023-11-15T09:48:02.361Z,564.00
2023-11-15T09:49:07.486Z,496.00
2023-11-15T09:50:02.269Z,556.00
2023-11-15T09:51:02.274Z,492.00
2023-11-15T09:52:02.129Z,456.00
2023-11-15T09:53:02.130Z,436.00
2023-11-15T09:54:12.295Z,504.00
2023-11-15T09:55:02.143Z,708.00
2023-11-15T09:56:02.081Z,684.00
2023-11-15T09:57:02.121Z,588.00
2023-11-15T09:58:02.054Z,536.00
2023-11-15T09:59:02.058Z,908.00
2023-11-15T10:00:12.100Z,952.00
2023-11-15T10:01:02.137Z,808.00
2023-11-15T10:02:02.008Z,664.00
2023-11-15T10:03:02.209Z,744.00
2023-11-15T10:04:02.022Z,800.00
2023-11-15T10:05:02.031Z,844.00
2023-11-15T10:06:02.044Z,1148.00
2023-11-15T10:07:06.098Z,876.00
2023-11-15T10:08:01.964Z,740.00
2023-11-15T10:09:01.942Z,708.00
2023-11-15T10:10:01.936Z,896.00
2023-11-15T10:11:01.947Z,1256.00
2023-11-15T10:12:01.911Z,1484.00
2023-11-15T10:13:01.879Z,1304.00
2023-11-15T10:14:01.842Z,1244.00
2023-11-15T10:15:01.923Z,1324.00
2023-11-15T10:16:01.907Z,1368.00
2023-11-15T10:17:01.878Z,1332.00
2023-11-15T10:18:01.905Z,1532.00
2023-11-15T10:19:01.877Z,1508.00
2023-11-15T10:20:01.765Z,1784.00
2023-11-15T10:21:01.787Z,2060.00
2023-11-15T10:22:01.769Z,2244.00
2023-11-15T10:23:01.734Z,2560.00
2023-11-15T10:24:01.730Z,3088.00
2023-11-15T10:25:01.715Z,2876.00
2023-11-15T10:26:01.682Z,2412.00
2023-11-15T10:27:01.732Z,2168.00
2023-11-15T10:28:01.675Z,2840.00
2023-11-15T10:29:01.657Z,2760.00
2023-11-15T10:30:01.708Z,4008.00
2023-11-15T10:31:01.665Z,3320.00
2023-11-15T10:32:04.427Z,3624.00
2023-11-15T10:33:01.653Z,4564.00
2023-11-15T10:34:01.605Z,3384.00
2023-11-15T10:35:01.593Z,3196.00
2023-11-15T10:36:01.600Z,3120.00
2023-11-15T10:37:02.458Z,5136.00
2023-11-15T10:38:01.585Z,5016.00
2023-11-15T10:39:01.632Z,4964.00
2023-11-15T10:40:01.558Z,2696.00
2023-11-15T10:41:01.525Z,2580.00
2023-11-15T10:42:01.542Z,2640.00
2023-11-15T10:43:01.533Z,3308.00
2023-11-15T10:44:01.494Z,5592.00
2023-11-15T10:45:01.507Z,3836.00
2023-11-15T10:46:01.504Z,2576.00
2023-11-15T10:47:01.450Z,1956.00
2023-11-15T10:48:01.506Z,1456.00
2023-11-15T10:49:01.478Z,1540.00
2023-11-15T10:50:01.427Z,1816.00
2023-11-15T10:51:01.421Z,2148.00
2023-11-15T10:52:01.405Z,2588.00
2023-11-15T10:53:01.421Z,3180.00
2023-11-15T10:54:01.398Z,2804.00
2023-11-15T10:55:01.375Z,2284.00
2023-11-15T10:56:01.362Z,2384.00
2023-11-15T10:57:01.358Z,2336.00
2023-11-15T10:58:01.350Z,2472.00
2023-11-15T10:59:01.322Z,2672.00
2023-11-15T11:00:01.376Z,3132.00
2023-11-15T11:01:01.348Z,3228.00
2023-11-15T11:02:01.313Z,4924.00
2023-11-15T11:03:01.437Z,3248.00
2023-11-15T11:04:01.424Z,3196.00
2023-11-15T11:05:01.321Z,3096.00
2023-11-15T11:06:01.247Z,3084.00
2023-11-15T11:07:01.229Z,3364.00
2023-11-15T11:08:01.240Z,3396.00
2023-11-15T11:09:01.228Z,2852.00
2023-11-15T11:10:01.188Z,4796.00
2023-11-15T11:11:04.279Z,2932.00
2023-11-15T11:12:01.291Z,2764.00
2023-11-15T11:13:01.188Z,2748.00
2023-11-15T11:14:01.145Z,2704.00
2023-11-15T11:15:01.190Z,2836.00
2023-11-15T11:16:01.121Z,2920.00
2023-11-15T11:17:01.183Z,2772.00
2023-11-15T11:18:01.204Z,2948.00
2023-11-15T11:19:01.114Z,5092.00
2023-11-15T11:20:01.088Z,4972.00
2023-11-15T11:21:01.206Z,5192.00
2023-11-15T11:22:01.045Z,5460.00
2023-11-15T11:23:01.042Z,5216.00
2023-11-15T11:24:01.070Z,4764.00
2023-11-15T11:25:01.021Z,4988.00
2023-11-15T11:26:01.033Z,5144.00
2023-11-15T11:27:01.006Z,5136.00
2023-11-15T11:28:00.975Z,3364.00
2023-11-15T11:29:01.008Z,5268.00
2023-11-15T11:30:01.002Z,5472.00
2023-11-15T11:31:00.978Z,5388.00
2023-11-15T11:32:00.940Z,3324.00
2023-11-15T11:33:01.028Z,3192.00
2023-11-15T11:34:00.949Z,4556.00
2023-11-15T11:35:00.905Z,3276.00
2023-11-15T11:36:00.901Z,4404.00
2023-11-15T11:37:00.891Z,4788.00
2023-11-15T11:38:00.890Z,3564.00
2023-11-15T11:39:00.976Z,3300.00
2023-11-15T11:40:00.896Z,3188.00
2023-11-15T11:41:00.835Z,2936.00
2023-11-15T11:42:00.879Z,2620.00
2023-11-15T11:43:00.829Z,2620.00
2023-11-15T11:44:00.832Z,3272.00
2023-11-15T11:45:00.833Z,2688.00
2023-11-15T11:46:00.821Z,2656.00
2023-11-15T11:47:00.807Z,2808.00
2023-11-15T11:48:00.834Z,2752.00
2023-11-15T11:49:00.772Z,2712.00
2023-11-15T11:50:00.725Z,2748.00
2023-11-15T11:51:00.787Z,2916.00
2023-11-15T11:52:00.704Z,3092.00
2023-11-15T11:53:00.714Z,4972.00
2023-11-15T11:54:00.780Z,5376.00
2023-11-15T11:55:00.677Z,5840.00
2023-11-15T11:56:00.687Z,6016.00
2023-11-15T11:57:00.669Z,5972.00
2023-11-15T11:58:00.632Z,5888.00
2023-11-15T11:59:00.653Z,4848.00
2023-11-15T12:00:00.709Z,5840.00
2023-11-15T12:01:00.611Z,4504.00
2023-11-15T12:02:00.616Z,3164.00
2023-11-15T12:03:03.697Z,3900.00
2023-11-15T12:04:00.747Z,4532.00
2023-11-15T12:05:00.620Z,4076.00
2023-11-15T12:06:00.584Z,4968.00
2023-11-15T12:07:00.545Z,5568.00
2023-11-15T12:08:00.541Z,3372.00
2023-11-15T12:09:00.583Z,5456.00
2023-11-15T12:10:00.524Z,5388.00
2023-11-15T12:11:00.502Z,4312.00
2023-11-15T12:12:00.523Z,3860.00
2023-11-15T12:13:00.500Z,3296.00
2023-11-15T12:14:00.494Z,2932.00
2023-11-15T12:15:00.557Z,3364.00
2023-11-15T12:16:00.449Z,2824.00
2023-11-15T12:17:00.460Z,2836.00
2023-11-15T12:18:00.674Z,2576.00
2023-11-15T12:19:00.446Z,2564.00
2023-11-15T12:20:00.411Z,2556.00
2023-11-15T12:21:00.430Z,2536.00
2023-11-15T12:22:00.379Z,2600.00
2023-11-15T12:23:00.365Z,2700.00
2023-11-15T12:24:00.469Z,2400.00
2023-11-15T12:25:00.360Z,2268.00
2023-11-15T12:26:00.323Z,2224.00
2023-11-15T12:27:00.401Z,2180.00
2023-11-15T12:28:00.339Z,2308.00
2023-11-15T12:29:00.298Z,2292.00
2023-11-15T12:30:00.406Z,2272.00
2023-11-15T12:31:00.332Z,2256.00
2023-11-15T12:32:00.268Z,2152.00
2023-11-15T12:33:00.338Z,1948.00
2023-11-15T12:34:00.248Z,1908.00
2023-11-15T12:35:00.236Z,1812.00
2023-11-15T12:36:00.265Z,1988.00
2023-11-15T12:37:00.226Z,2016.00
2023-11-15T12:38:00.209Z,2132.00
2023-11-15T12:39:00.239Z,2088.00
2023-11-15T12:40:00.252Z,2012.00
2023-11-15T12:41:01.870Z,2068.00
2023-11-15T12:42:00.217Z,1996.00
2023-11-15T12:43:00.138Z,2068.00
2023-11-15T12:44:00.129Z,2236.00
2023-11-15T12:45:00.167Z,2352.00
2023-11-15T12:46:00.136Z,2636.00
2023-11-15T12:47:00.119Z,3820.00
2023-11-15T12:48:00.127Z,3444.00
2023-11-15T12:49:00.064Z,2744.00